This is the latest recevied weather packets stored in our database for station/object OE6ATD-13. If no packets are shown the sender has not sent any weather packets the latest 10 day(s).
| Time | Temp. | Humidity | Pressure | Rain* | Wind** | Luminosity | Snow |
|---|---|---|---|---|---|---|---|
| 1778152521 | 23.33° C | 42% | 1011 hPa | 0 mm | - | 637 W/m² | - |
| 1778151916 | 23.33° C | 43% | 1011 hPa | 0 mm | - | 741 W/m² | - |
| 1778151326 | 22.78° C | 44% | 1011.1 hPa | 0 mm | - | 810 W/m² | - |
| 1778150722 | 22.22° C | 46% | 1011.1 hPa | 0 mm | - | 810 W/m² | - |
| 1778150118 | 22.22° C | 45% | 1011.2 hPa | 0 mm | - | 412 W/m² | - |
| 1778149529 | 22.78° C | 44% | 1011.3 hPa | 0 mm | - | 396 W/m² | - |
| 1778148925 | 22.22° C | 45% | 1011.4 hPa | 0 mm | - | 583 W/m² | - |
| 1778148327 | 22.78° C | 44% | 1011.5 hPa | 0 mm | - | 668 W/m² | - |
| 1778147723 | 22.78° C | 44% | 1011.5 hPa | 0 mm | - | 854 W/m² | - |
| 1778147118 | 23.33° C | 43% | 1011.5 hPa | 0 mm | - | 825 W/m² | - |
| 1778146529 | 23.33° C | 45% | 1011.7 hPa | 0 mm | - | 838 W/m² | - |
| 1778145925 | 21.67° C | 49% | 1011.6 hPa | 0 mm | - | 636 W/m² | - |
| 1778145320 | 22.22° C | 46% | 1011.6 hPa | 0 mm | - | 771 W/m² | - |
| 1778144716 | 21.11° C | 52% | 1011.6 hPa | 0 mm | - | 788 W/m² | - |
| 1778144127 | 21.11° C | 54% | 1011.6 hPa | 0 mm | - | 809 W/m² | - |
| 1778143523 | 20° C | 58% | 1011.6 hPa | 0 mm | - | 655 W/m² | - |
| 1778142919 | 18.89° C | 60% | 1011.6 hPa | 0 mm | - | 278 W/m² | - |
| 1778142329 | 18.89° C | 59% | 1011.6 hPa | 0 mm | - | 210 W/m² | - |
| 1778141725 | 18.89° C | 60% | 1011.5 hPa | 0 mm | - | 289 W/m² | - |
| 1778141121 | 18.33° C | 62% | 1011.2 hPa | 0 mm | - | 280 W/m² | - |
| 1778140517 | 17.78° C | 62% | 1011.4 hPa | 0 mm | - | 198 W/m² | - |
| 1778139928 | 17.22° C | 62% | 1011.2 hPa | 0 mm | - | 170 W/m² | - |
| 1778139323 | 17.22° C | 66% | 1011.3 hPa | 0 mm | - | 131 W/m² | - |
| 1778138719 | 16.67° C | 67% | 1011.2 hPa | 0 mm | - | 92 W/m² | - |
| 1778138115 | 16.67° C | 68% | 1011 hPa | 0 mm | - | 112 W/m² | - |
* Rain latest hour (hover to see other rain measurements)
** Current wind speed in m/s (hover to see current wind gust speed)